createdAt,value
2023-04-10T00:09:16.872Z,100.00
2023-04-10T00:19:24.783Z,100.00
2023-04-10T00:29:31.518Z,100.00
2023-04-10T00:39:36.145Z,100.00
2023-04-10T00:49:41.667Z,100.00
2023-04-10T00:59:44.355Z,100.00
2023-04-10T01:10:00.566Z,100.00
2023-04-10T01:20:23.256Z,100.00
2023-04-10T01:30:25.580Z,100.00
2023-04-10T01:40:33.243Z,100.00
2023-04-10T01:50:36.292Z,100.00
2023-04-10T02:00:43.386Z,100.00
2023-04-10T02:11:16.184Z,100.00
2023-04-10T02:21:18.378Z,100.00
2023-04-10T02:31:25.007Z,100.00
2023-04-10T02:41:30.053Z,100.00
2023-04-10T02:51:38.131Z,100.00
2023-04-10T03:01:42.438Z,100.00
2023-04-10T03:11:44.687Z,100.00
2023-04-10T03:21:49.215Z,100.00
2023-04-10T03:31:56.474Z,100.00
2023-04-10T03:42:02.305Z,100.00
2023-04-10T03:52:05.560Z,100.00
2023-04-10T04:02:11.635Z,100.00
2023-04-10T04:12:19.839Z,100.00
2023-04-10T04:22:22.018Z,100.00
2023-04-10T04:32:46.619Z,100.00
2023-04-10T04:43:09.100Z,100.00
2023-04-10T04:53:28.530Z,100.00
2023-04-10T05:03:57.787Z,100.00
2023-04-10T05:14:33.759Z,100.00
2023-04-10T05:24:55.938Z,100.00
2023-04-10T05:35:11.027Z,100.00
2023-04-10T05:45:22.346Z,100.00
2023-04-10T05:55:54.820Z,100.00
2023-04-10T06:06:18.324Z,100.00
2023-04-10T06:16:26.998Z,100.00
2023-04-10T06:26:30.385Z,99.91
2023-04-10T06:36:35.316Z,95.77
2023-04-10T06:46:40.848Z,89.35
2023-04-10T06:56:46.244Z,83.17
2023-04-10T07:06:51.395Z,82.02
2023-04-10T07:16:56.058Z,84.23
2023-04-10T07:27:01.917Z,82.65
2023-04-10T07:37:04.148Z,79.51
2023-04-10T07:47:08.346Z,77.73
2023-04-10T07:57:10.621Z,76.22
2023-04-10T08:07:12.992Z,79.41
2023-04-10T08:17:15.578Z,77.51
2023-04-10T08:27:21.580Z,75.30
2023-04-10T08:37:26.688Z,75.30
2023-04-10T08:47:30.338Z,70.76
2023-04-10T08:57:33.834Z,68.88
2023-04-10T09:07:39.273Z,67.62
2023-04-10T09:18:04.936Z,67.68
2023-04-10T09:28:08.904Z,68.88
2023-04-10T09:38:17.457Z,68.09
2023-04-10T09:48:23.531Z,65.32
2023-04-10T09:58:29.708Z,63.60
2023-04-10T10:08:33.375Z,63.75
2023-04-10T10:18:51.127Z,61.49
2023-04-10T10:28:54.328Z,64.67
2023-04-10T10:39:27.957Z,62.68
2023-04-10T10:50:16.118Z,60.50
2023-04-10T11:00:22.351Z,61.02
2023-04-10T11:11:05.057Z,58.48
2023-04-10T11:21:19.313Z,58.56
2023-04-10T11:31:23.626Z,57.51
2023-04-10T11:41:33.720Z,56.59
2023-04-10T11:51:37.758Z,55.12
2023-04-10T12:01:46.747Z,53.19
2023-04-10T12:12:04.280Z,53.44
2023-04-10T12:22:12.295Z,53.96
2023-04-10T12:32:19.188Z,52.33
2023-04-10T12:42:23.499Z,49.72
2023-04-10T12:52:28.233Z,51.56
2023-04-10T13:02:34.295Z,51.42
2023-04-10T13:12:38.258Z,49.15
2023-04-10T13:22:43.653Z,48.82
2023-04-10T13:32:52.326Z,49.86
2023-04-10T13:42:54.710Z,51.88
2023-04-10T13:52:59.080Z,58.91
2023-04-10T14:03:11.273Z,60.25
2023-04-10T14:13:14.782Z,68.39
2023-04-10T14:23:24.061Z,84.94
2023-04-10T14:33:31.247Z,100.00
2023-04-10T14:43:35.607Z,100.00
2023-04-10T14:53:40.613Z,98.63
2023-04-10T15:03:49.349Z,100.00
2023-04-10T15:13:54.078Z,100.00
2023-04-10T15:23:59.184Z,97.76
2023-04-10T15:34:03.618Z,95.39
2023-04-10T15:44:05.957Z,100.00
2023-04-10T15:54:11.293Z,100.00
2023-04-10T16:04:16.803Z,95.64
2023-04-10T16:14:19.295Z,99.57
2023-04-10T16:24:24.327Z,87.52
2023-04-10T16:34:29.001Z,100.00
2023-04-10T16:44:32.441Z,100.00
2023-04-10T16:54:34.950Z,100.00
2023-04-10T17:04:41.571Z,100.00
2023-04-10T17:14:48.822Z,100.00
2023-04-10T17:24:51.031Z,91.17
2023-04-10T17:34:53.260Z,91.54
2023-04-10T17:44:58.042Z,89.63
2023-04-10T17:55:02.337Z,91.50
2023-04-10T18:05:09.684Z,87.82
2023-04-10T18:15:12.050Z,86.17
2023-04-10T18:25:17.053Z,91.55
2023-04-10T18:35:24.453Z,92.47
2023-04-10T18:45:28.976Z,96.85
2023-04-10T18:55:34.352Z,99.93
2023-04-10T19:05:39.875Z,100.00
2023-04-10T19:15:46.569Z,100.00
2023-04-10T19:25:58.824Z,100.00
2023-04-10T19:36:01.115Z,100.00
2023-04-10T19:46:04.415Z,100.00
2023-04-10T19:56:07.000Z,100.00
2023-04-10T20:06:14.402Z,100.00
2023-04-10T20:16:18.905Z,100.00
2023-04-10T20:26:26.271Z,96.20
2023-04-10T20:36:36.891Z,94.31
2023-04-10T20:46:42.868Z,94.03
2023-04-10T20:56:50.350Z,89.78
2023-04-10T21:06:53.993Z,88.84
2023-04-10T21:17:00.809Z,87.55
2023-04-10T21:27:06.207Z,86.63
2023-04-10T21:37:10.322Z,85.64
2023-04-10T21:47:14.983Z,83.57
2023-04-10T21:57:18.603Z,82.55
2023-04-10T22:07:26.260Z,80.69
2023-04-10T22:17:32.641Z,81.63
2023-04-10T22:27:36.494Z,83.49
2023-04-10T22:37:38.730Z,84.74
2023-04-10T22:47:40.865Z,85.85
2023-04-10T22:57:52.104Z,87.33
2023-04-10T23:07:58.443Z,88.60
2023-04-10T23:18:05.809Z,88.97
2023-04-10T23:28:08.043Z,90.14
2023-04-10T23:38:10.593Z,90.51
2023-04-10T23:48:18.358Z,91.38
2023-04-10T23:58:21.572Z,93.56
